Aeroporto :
LOGIN :

Iscrizione | Disclaimer

   EN    FR    IT 

 










Sommario :    VFR   VFR Marginale   IFR   IFR Intensivo   IFR Molto Intensivo
Visibilità : 
Base nubi : 
>= 8 km
>= 3000ft
5 / 8 km
1000 / 3000 ft
1500m / 5 km
500 / 1000 ft
800 / 1500m
200 / 500 ft
< 800m
< 200 ft
Simboli :   Temporali  Nebbia  Neve Forte  Precipitazioni Forti  Vento > 20 kt
SIGMETs :   Varie  Temporali  Ghiacco  Turbolenza  Onda orograficha  Ceneri Vulcaniche






- Altitudine del aeroporto : 375 ft
- Codice IATA : MST


EHBK - Maastricht Aachen

ULTIMO METAR :
  • 030125Z AUTO 24004KT 210V270 9999 NSC 15/08 Q1010

METARs OBSOLETI :
  • 030055Z AUTO 24004KT 9999 NSC 15/08 Q1010
  • 030025Z AUTO 25003KT 220V280 9999 NSC 16/08 Q1010
  • 022355Z AUTO 26003KT 220V290 9999 NSC 16/08 Q1011
  • 022325Z AUTO 27003KT 220V330 9999 NSC 17/07 Q1011
  • 022255Z AUTO VRB02KT 9999 NSC 17/07 Q1011

TAF TAF EHBK
Valido dal 03 a 00 ore il 04 a 06 ore UTC


022304Z 0300/0406 25004KT CAVOK
PROB30
TEMPO 0306/0311 -SHRA FEW060CB
BECMG 0315/0318 31010KT



MetMap, La meteo Aeronautica in un colpo d'occhio ! - Copyright ORBIFLY Dicembre 2007 - Disclaimer

ORBIFLY MET'MAP TEAM :

Programmazione e sviluppo : Alexandra Zaïnal
Concezione : Baudouin d'Aumeries
Aiuto per la programmazione : Marc-Olivier Méhu
Supporto tecnico e logistico : Manuel Goepfert
Aiuto per la traduzione : Arnaldo La Scala

Contatto : metmap@orbifly.com




FONTI E CREDITI :

   NOAA